sensor_id;sensor_type;location;lat;lon;timestamp;P1;durP1;ratioP1;P2;durP2;ratioP2
59830;SDS011;45711;50.108;13.712;2023-04-25T00:00:27;4.10;;;2.60;;
59830;SDS011;45711;50.108;13.712;2023-04-25T00:02:53;4.22;;;2.50;;
59830;SDS011;45711;50.108;13.712;2023-04-25T00:05:21;11.65;;;2.85;;
59830;SDS011;45711;50.108;13.712;2023-04-25T00:07:48;4.35;;;2.45;;
59830;SDS011;45711;50.108;13.712;2023-04-25T00:10:13;5.20;;;2.53;;
59830;SDS011;45711;50.108;13.712;2023-04-25T00:12:41;4.70;;;3.08;;
59830;SDS011;45711;50.108;13.712;2023-04-25T00:15:07;8.52;;;4.20;;
59830;SDS011;45711;50.108;13.712;2023-04-25T00:17:33;8.05;;;5.00;;
59830;SDS011;45711;50.108;13.712;2023-04-25T00:20:02;8.95;;;4.30;;
59830;SDS011;45711;50.108;13.712;2023-04-25T00:22:32;6.85;;;3.22;;
59830;SDS011;45711;50.108;13.712;2023-04-25T00:24:59;5.25;;;3.13;;
59830;SDS011;45711;50.108;13.712;2023-04-25T00:27:25;5.40;;;2.63;;
59830;SDS011;45711;50.108;13.712;2023-04-25T00:29:52;3.50;;;2.35;;
59830;SDS011;45711;50.108;13.712;2023-04-25T00:32:18;5.13;;;2.90;;
59830;SDS011;45711;50.108;13.712;2023-04-25T00:34:45;6.78;;;3.10;;
59830;SDS011;45711;50.108;13.712;2023-04-25T00:37:11;4.43;;;2.88;;
59830;SDS011;45711;50.108;13.712;2023-04-25T00:39:36;4.68;;;2.90;;
59830;SDS011;45711;50.108;13.712;2023-04-25T00:42:02;4.85;;;3.15;;
59830;SDS011;45711;50.108;13.712;2023-04-25T00:44:28;4.65;;;2.85;;
59830;SDS011;45711;50.108;13.712;2023-04-25T00:46:59;4.75;;;3.03;;
59830;SDS011;45711;50.108;13.712;2023-04-25T00:49:26;8.80;;;3.33;;
59830;SDS011;45711;50.108;13.712;2023-04-25T00:51:52;10.60;;;4.20;;
59830;SDS011;45711;50.108;13.712;2023-04-25T00:54:18;10.60;;;3.67;;
59830;SDS011;45711;50.108;13.712;2023-04-25T00:56:44;9.10;;;3.67;;
59830;SDS011;45711;50.108;13.712;2023-04-25T00:59:10;7.88;;;3.40;;
59830;SDS011;45711;50.108;13.712;2023-04-25T01:01:40;23.95;;;3.50;;
59830;SDS011;45711;50.108;13.712;2023-04-25T01:04:08;13.13;;;3.55;;
59830;SDS011;45711;50.108;13.712;2023-04-25T01:06:36;8.77;;;3.33;;
59830;SDS011;45711;50.108;13.712;2023-04-25T01:09:01;6.25;;;3.55;;
59830;SDS011;45711;50.108;13.712;2023-04-25T01:11:29;6.65;;;3.90;;
59830;SDS011;45711;50.108;13.712;2023-04-25T01:13:55;4.95;;;3.28;;
59830;SDS011;45711;50.108;13.712;2023-04-25T01:16:21;4.28;;;3.10;;
59830;SDS011;45711;50.108;13.712;2023-04-25T01:18:49;5.43;;;3.10;;
59830;SDS011;45711;50.108;13.712;2023-04-25T01:21:17;9.23;;;3.30;;
59830;SDS011;45711;50.108;13.712;2023-04-25T01:23:43;6.95;;;3.35;;
59830;SDS011;45711;50.108;13.712;2023-04-25T01:26:09;7.20;;;3.45;;
59830;SDS011;45711;50.108;13.712;2023-04-25T01:28:36;5.65;;;3.72;;
59830;SDS011;45711;50.108;13.712;2023-04-25T01:31:02;6.85;;;3.55;;
59830;SDS011;45711;50.108;13.712;2023-04-25T01:33:29;6.65;;;3.42;;
59830;SDS011;45711;50.108;13.712;2023-04-25T01:35:55;6.10;;;3.83;;
59830;SDS011;45711;50.108;13.712;2023-04-25T01:38:22;7.85;;;3.67;;
59830;SDS011;45711;50.108;13.712;2023-04-25T01:40:48;5.93;;;3.63;;
59830;SDS011;45711;50.108;13.712;2023-04-25T01:43:15;7.43;;;3.83;;
59830;SDS011;45711;50.108;13.712;2023-04-25T01:45:41;8.13;;;3.95;;
59830;SDS011;45711;50.108;13.712;2023-04-25T01:48:07;8.40;;;3.88;;
59830;SDS011;45711;50.108;13.712;2023-04-25T01:50:34;10.32;;;4.18;;
59830;SDS011;45711;50.108;13.712;2023-04-25T01:53:00;7.72;;;4.10;;
59830;SDS011;45711;50.108;13.712;2023-04-25T01:55:28;10.40;;;3.75;;
59830;SDS011;45711;50.108;13.712;2023-04-25T01:57:54;6.82;;;4.13;;
59830;SDS011;45711;50.108;13.712;2023-04-25T02:00:19;6.60;;;4.05;;
59830;SDS011;45711;50.108;13.712;2023-04-25T02:02:45;7.13;;;4.28;;
59830;SDS011;45711;50.108;13.712;2023-04-25T02:05:11;6.55;;;3.78;;
59830;SDS011;45711;50.108;13.712;2023-04-25T02:07:37;6.60;;;4.53;;
59830;SDS011;45711;50.108;13.712;2023-04-25T02:10:03;7.20;;;4.20;;
59830;SDS011;45711;50.108;13.712;2023-04-25T02:12:30;8.90;;;4.50;;
59830;SDS011;45711;50.108;13.712;2023-04-25T02:14:57;6.93;;;4.40;;
59830;SDS011;45711;50.108;13.712;2023-04-25T02:17:22;11.45;;;4.60;;
59830;SDS011;45711;50.108;13.712;2023-04-25T02:19:57;8.13;;;3.95;;
59830;SDS011;45711;50.108;13.712;2023-04-25T02:22:32;6.85;;;3.30;;
59830;SDS011;45711;50.108;13.712;2023-04-25T02:24:59;13.55;;;4.32;;
59830;SDS011;45711;50.108;13.712;2023-04-25T02:27:26;6.15;;;4.30;;
59830;SDS011;45711;50.108;13.712;2023-04-25T02:29:53;5.72;;;4.05;;
59830;SDS011;45711;50.108;13.712;2023-04-25T02:32:19;7.00;;;4.05;;
59830;SDS011;45711;50.108;13.712;2023-04-25T02:34:45;11.50;;;5.70;;
59830;SDS011;45711;50.108;13.712;2023-04-25T02:37:11;14.35;;;7.05;;
59830;SDS011;45711;50.108;13.712;2023-04-25T02:39:36;17.05;;;8.90;;
59830;SDS011;45711;50.108;13.712;2023-04-25T02:42:03;19.02;;;8.75;;
59830;SDS011;45711;50.108;13.712;2023-04-25T02:44:29;12.57;;;7.00;;
59830;SDS011;45711;50.108;13.712;2023-04-25T02:46:56;11.82;;;6.43;;
59830;SDS011;45711;50.108;13.712;2023-04-25T02:49:22;12.00;;;5.78;;
59830;SDS011;45711;50.108;13.712;2023-04-25T02:51:47;13.18;;;5.97;;
59830;SDS011;45711;50.108;13.712;2023-04-25T02:54:13;12.05;;;4.93;;
59830;SDS011;45711;50.108;13.712;2023-04-25T02:56:38;10.50;;;5.55;;
59830;SDS011;45711;50.108;13.712;2023-04-25T02:59:04;17.15;;;5.82;;
59830;SDS011;45711;50.108;13.712;2023-04-25T03:01:30;9.10;;;5.55;;
59830;SDS011;45711;50.108;13.712;2023-04-25T03:03:57;8.75;;;5.68;;
59830;SDS011;45711;50.108;13.712;2023-04-25T03:06:23;11.70;;;6.57;;
59830;SDS011;45711;50.108;13.712;2023-04-25T03:08:48;11.88;;;6.22;;
59830;SDS011;45711;50.108;13.712;2023-04-25T03:11:14;11.23;;;5.55;;
59830;SDS011;45711;50.108;13.712;2023-04-25T03:13:40;11.50;;;5.95;;
59830;SDS011;45711;50.108;13.712;2023-04-25T03:16:05;10.48;;;5.80;;
59830;SDS011;45711;50.108;13.712;2023-04-25T03:18:31;9.27;;;5.93;;
59830;SDS011;45711;50.108;13.712;2023-04-25T03:21:00;10.30;;;5.53;;
59830;SDS011;45711;50.108;13.712;2023-04-25T03:23:26;11.77;;;5.75;;
59830;SDS011;45711;50.108;13.712;2023-04-25T03:25:52;12.35;;;6.07;;
59830;SDS011;45711;50.108;13.712;2023-04-25T03:28:17;9.32;;;6.22;;
59830;SDS011;45711;50.108;13.712;2023-04-25T03:30:45;12.10;;;5.60;;
59830;SDS011;45711;50.108;13.712;2023-04-25T03:33:11;9.57;;;5.80;;
59830;SDS011;45711;50.108;13.712;2023-04-25T03:35:37;10.82;;;5.80;;
59830;SDS011;45711;50.108;13.712;2023-04-25T03:38:04;7.72;;;5.22;;
59830;SDS011;45711;50.108;13.712;2023-04-25T03:40:29;8.20;;;5.50;;
59830;SDS011;45711;50.108;13.712;2023-04-25T03:42:55;12.00;;;5.80;;
59830;SDS011;45711;50.108;13.712;2023-04-25T03:45:21;18.83;;;7.25;;
59830;SDS011;45711;50.108;13.712;2023-04-25T03:47:47;18.33;;;6.07;;
59830;SDS011;45711;50.108;13.712;2023-04-25T03:50:12;11.55;;;5.18;;
59830;SDS011;45711;50.108;13.712;2023-04-25T03:52:38;6.75;;;5.00;;
59830;SDS011;45711;50.108;13.712;2023-04-25T03:55:05;6.75;;;4.95;;
59830;SDS011;45711;50.108;13.712;2023-04-25T03:57:32;8.10;;;5.28;;
59830;SDS011;45711;50.108;13.712;2023-04-25T03:59:57;7.15;;;5.07;;
59830;SDS011;45711;50.108;13.712;2023-04-25T04:02:23;8.35;;;4.75;;
59830;SDS011;45711;50.108;13.712;2023-04-25T04:04:49;9.15;;;4.82;;
59830;SDS011;45711;50.108;13.712;2023-04-25T04:07:14;9.07;;;4.85;;
59830;SDS011;45711;50.108;13.712;2023-04-25T04:09:40;13.75;;;6.57;;
59830;SDS011;45711;50.108;13.712;2023-04-25T04:12:07;10.98;;;5.70;;
59830;SDS011;45711;50.108;13.712;2023-04-25T04:14:33;13.77;;;5.57;;
59830;SDS011;45711;50.108;13.712;2023-04-25T04:16:58;12.65;;;5.47;;
59830;SDS011;45711;50.108;13.712;2023-04-25T04:19:24;12.10;;;5.72;;
59830;SDS011;45711;50.108;13.712;2023-04-25T04:21:50;12.80;;;5.45;;
59830;SDS011;45711;50.108;13.712;2023-04-25T04:24:16;9.93;;;5.53;;
59830;SDS011;45711;50.108;13.712;2023-04-25T04:26:41;8.60;;;5.38;;
59830;SDS011;45711;50.108;13.712;2023-04-25T04:29:11;11.13;;;5.47;;
59830;SDS011;45711;50.108;13.712;2023-04-25T04:31:45;9.40;;;5.40;;
59830;SDS011;45711;50.108;13.712;2023-04-25T04:34:12;12.85;;;4.70;;
59830;SDS011;45711;50.108;13.712;2023-04-25T04:36:37;9.40;;;5.15;;
59830;SDS011;45711;50.108;13.712;2023-04-25T04:39:05;10.70;;;5.80;;
59830;SDS011;45711;50.108;13.712;2023-04-25T04:41:31;8.02;;;4.80;;
59830;SDS011;45711;50.108;13.712;2023-04-25T04:43:57;9.80;;;5.40;;
59830;SDS011;45711;50.108;13.712;2023-04-25T04:46:24;9.10;;;4.97;;
59830;SDS011;45711;50.108;13.712;2023-04-25T04:48:50;8.88;;;5.28;;
59830;SDS011;45711;50.108;13.712;2023-04-25T04:51:15;6.85;;;4.78;;
59830;SDS011;45711;50.108;13.712;2023-04-25T04:53:41;9.75;;;5.18;;
59830;SDS011;45711;50.108;13.712;2023-04-25T04:56:07;3.63;;;3.03;;
59830;SDS011;45711;50.108;13.712;2023-04-25T04:58:32;5.85;;;2.92;;
59830;SDS011;45711;50.108;13.712;2023-04-25T05:00:58;7.05;;;3.60;;
59830;SDS011;45711;50.108;13.712;2023-04-25T05:03:25;5.75;;;2.85;;
59830;SDS011;45711;50.108;13.712;2023-04-25T05:05:52;7.72;;;4.45;;
59830;SDS011;45711;50.108;13.712;2023-04-25T05:08:20;7.90;;;3.20;;
59830;SDS011;45711;50.108;13.712;2023-04-25T05:10:45;4.78;;;3.42;;
59830;SDS011;45711;50.108;13.712;2023-04-25T05:13:11;5.43;;;3.00;;
59830;SDS011;45711;50.108;13.712;2023-04-25T05:15:38;5.43;;;3.80;;
59830;SDS011;45711;50.108;13.712;2023-04-25T05:18:04;4.78;;;3.22;;
59830;SDS011;45711;50.108;13.712;2023-04-25T05:20:31;11.77;;;3.55;;
59830;SDS011;45711;50.108;13.712;2023-04-25T05:22:57;6.32;;;3.70;;
59830;SDS011;45711;50.108;13.712;2023-04-25T05:25:23;6.03;;;3.78;;
59830;SDS011;45711;50.108;13.712;2023-04-25T05:27:49;8.68;;;3.40;;
59830;SDS011;45711;50.108;13.712;2023-04-25T05:30:16;5.90;;;3.85;;
59830;SDS011;45711;50.108;13.712;2023-04-25T05:32:41;4.90;;;3.10;;
59830;SDS011;45711;50.108;13.712;2023-04-25T05:35:07;8.85;;;4.63;;
59830;SDS011;45711;50.108;13.712;2023-04-25T05:37:35;6.53;;;4.03;;
59830;SDS011;45711;50.108;13.712;2023-04-25T05:40:01;7.35;;;5.05;;
59830;SDS011;45711;50.108;13.712;2023-04-25T05:42:31;7.95;;;4.63;;
59830;SDS011;45711;50.108;13.712;2023-04-25T05:44:57;6.80;;;3.30;;
59830;SDS011;45711;50.108;13.712;2023-04-25T05:47:23;8.45;;;4.43;;
59830;SDS011;45711;50.108;13.712;2023-04-25T05:49:50;9.70;;;4.25;;
59830;SDS011;45711;50.108;13.712;2023-04-25T05:52:16;9.07;;;4.75;;
59830;SDS011;45711;50.108;13.712;2023-04-25T05:54:43;6.22;;;3.45;;
59830;SDS011;45711;50.108;13.712;2023-04-25T05:57:14;7.07;;;3.33;;
59830;SDS011;45711;50.108;13.712;2023-04-25T05:59:44;6.90;;;4.22;;
59830;SDS011;45711;50.108;13.712;2023-04-25T06:02:10;3.47;;;3.03;;
59830;SDS011;45711;50.108;13.712;2023-04-25T06:04:36;5.45;;;3.28;;
59830;SDS011;45711;50.108;13.712;2023-04-25T06:07:01;6.78;;;3.30;;
59830;SDS011;45711;50.108;13.712;2023-04-25T06:09:27;8.23;;;3.15;;
59830;SDS011;45711;50.108;13.712;2023-04-25T06:11:54;8.45;;;4.85;;
59830;SDS011;45711;50.108;13.712;2023-04-25T06:14:20;8.23;;;4.05;;
59830;SDS011;45711;50.108;13.712;2023-04-25T06:16:45;6.78;;;3.80;;
59830;SDS011;45711;50.108;13.712;2023-04-25T06:19:11;7.40;;;3.78;;
59830;SDS011;45711;50.108;13.712;2023-04-25T06:21:37;7.28;;;3.35;;
59830;SDS011;45711;50.108;13.712;2023-04-25T06:24:03;4.93;;;3.70;;
59830;SDS011;45711;50.108;13.712;2023-04-25T06:26:29;7.68;;;3.60;;
59830;SDS011;45711;50.108;13.712;2023-04-25T06:28:56;6.55;;;3.60;;
59830;SDS011;45711;50.108;13.712;2023-04-25T06:31:21;5.25;;;3.53;;
59830;SDS011;45711;50.108;13.712;2023-04-25T06:33:47;10.90;;;4.75;;
59830;SDS011;45711;50.108;13.712;2023-04-25T06:36:13;6.20;;;4.15;;
59830;SDS011;45711;50.108;13.712;2023-04-25T06:38:41;6.22;;;4.18;;
59830;SDS011;45711;50.108;13.712;2023-04-25T06:41:07;7.35;;;4.70;;
59830;SDS011;45711;50.108;13.712;2023-04-25T06:43:34;10.30;;;5.10;;
59830;SDS011;45711;50.108;13.712;2023-04-25T06:46:04;10.75;;;5.55;;
59830;SDS011;45711;50.108;13.712;2023-04-25T06:48:29;11.30;;;5.57;;
59830;SDS011;45711;50.108;13.712;2023-04-25T06:50:57;7.45;;;5.03;;
59830;SDS011;45711;50.108;13.712;2023-04-25T06:53:23;10.43;;;5.25;;
59830;SDS011;45711;50.108;13.712;2023-04-25T06:55:51;7.05;;;5.00;;
59830;SDS011;45711;50.108;13.712;2023-04-25T06:58:16;11.15;;;5.38;;
59830;SDS011;45711;50.108;13.712;2023-04-25T07:00:42;9.73;;;5.07;;
59830;SDS011;45711;50.108;13.712;2023-04-25T07:03:21;5.97;;;4.68;;
59830;SDS011;45711;50.108;13.712;2023-04-25T07:05:47;14.65;;;6.07;;
59830;SDS011;45711;50.108;13.712;2023-04-25T07:08:13;6.82;;;5.22;;
59830;SDS011;45711;50.108;13.712;2023-04-25T07:10:39;8.85;;;4.85;;
59830;SDS011;45711;50.108;13.712;2023-04-25T07:13:05;10.52;;;5.45;;
59830;SDS011;45711;50.108;13.712;2023-04-25T07:15:31;16.80;;;5.88;;
59830;SDS011;45711;50.108;13.712;2023-04-25T07:17:56;8.65;;;4.55;;
59830;SDS011;45711;50.108;13.712;2023-04-25T07:20:23;8.60;;;5.07;;
59830;SDS011;45711;50.108;13.712;2023-04-25T07:22:55;7.30;;;4.50;;
59830;SDS011;45711;50.108;13.712;2023-04-25T07:25:23;11.07;;;5.78;;
59830;SDS011;45711;50.108;13.712;2023-04-25T07:27:48;18.33;;;6.40;;
59830;SDS011;45711;50.108;13.712;2023-04-25T07:30:17;10.98;;;5.70;;
59830;SDS011;45711;50.108;13.712;2023-04-25T07:32:43;13.50;;;5.38;;
59830;SDS011;45711;50.108;13.712;2023-04-25T07:35:12;7.90;;;5.28;;
59830;SDS011;45711;50.108;13.712;2023-04-25T07:37:45;13.18;;;5.50;;
59830;SDS011;45711;50.108;13.712;2023-04-25T07:40:12;21.05;;;5.55;;
59830;SDS011;45711;50.108;13.712;2023-04-25T07:42:43;9.05;;;5.60;;
59830;SDS011;45711;50.108;13.712;2023-04-25T07:45:14;7.47;;;5.00;;
59830;SDS011;45711;50.108;13.712;2023-04-25T07:47:49;11.90;;;5.90;;
59830;SDS011;45711;50.108;13.712;2023-04-25T07:50:16;7.03;;;5.15;;
59830;SDS011;45711;50.108;13.712;2023-04-25T07:52:42;7.82;;;4.95;;
59830;SDS011;45711;50.108;13.712;2023-04-25T07:55:09;8.65;;;5.03;;
59830;SDS011;45711;50.108;13.712;2023-04-25T07:57:35;7.80;;;5.03;;
59830;SDS011;45711;50.108;13.712;2023-04-25T08:00:02;9.32;;;4.93;;
59830;SDS011;45711;50.108;13.712;2023-04-25T08:02:30;8.13;;;4.85;;
59830;SDS011;45711;50.108;13.712;2023-04-25T08:04:55;7.03;;;4.70;;
59830;SDS011;45711;50.108;13.712;2023-04-25T08:07:21;12.55;;;4.60;;
59830;SDS011;45711;50.108;13.712;2023-04-25T08:09:47;7.03;;;4.97;;
59830;SDS011;45711;50.108;13.712;2023-04-25T08:12:14;7.90;;;4.30;;
59830;SDS011;45711;50.108;13.712;2023-04-25T08:14:40;10.48;;;4.80;;
59830;SDS011;45711;50.108;13.712;2023-04-25T08:17:05;7.43;;;4.28;;
59830;SDS011;45711;50.108;13.712;2023-04-25T08:19:34;6.90;;;4.53;;
59830;SDS011;45711;50.108;13.712;2023-04-25T08:21:59;7.85;;;4.43;;
59830;SDS011;45711;50.108;13.712;2023-04-25T08:24:25;8.27;;;4.03;;
59830;SDS011;45711;50.108;13.712;2023-04-25T08:26:51;6.25;;;3.75;;
59830;SDS011;45711;50.108;13.712;2023-04-25T08:29:20;8.10;;;3.70;;
59830;SDS011;45711;50.108;13.712;2023-04-25T08:31:45;4.13;;;2.92;;
59830;SDS011;45711;50.108;13.712;2023-04-25T08:34:11;2.53;;;2.30;;
59830;SDS011;45711;50.108;13.712;2023-04-25T08:36:37;4.60;;;2.72;;
59830;SDS011;45711;50.108;13.712;2023-04-25T08:39:04;4.68;;;3.08;;
59830;SDS011;45711;50.108;13.712;2023-04-25T08:41:29;4.10;;;2.78;;
59830;SDS011;45711;50.108;13.712;2023-04-25T08:43:59;4.90;;;2.70;;
59830;SDS011;45711;50.108;13.712;2023-04-25T08:46:39;6.05;;;2.90;;
59830;SDS011;45711;50.108;13.712;2023-04-25T08:49:06;6.45;;;2.72;;
59830;SDS011;45711;50.108;13.712;2023-04-25T08:51:38;4.15;;;2.05;;
59830;SDS011;45711;50.108;13.712;2023-04-25T08:54:09;4.00;;;2.17;;
59830;SDS011;45711;50.108;13.712;2023-04-25T08:56:36;2.70;;;1.83;;
59830;SDS011;45711;50.108;13.712;2023-04-25T08:59:03;3.65;;;2.10;;
59830;SDS011;45711;50.108;13.712;2023-04-25T09:01:33;3.42;;;2.03;;
59830;SDS011;45711;50.108;13.712;2023-04-25T09:04:03;2.20;;;1.88;;
59830;SDS011;45711;50.108;13.712;2023-04-25T09:06:28;2.20;;;1.80;;
59830;SDS011;45711;50.108;13.712;2023-04-25T09:09:07;3.35;;;2.10;;
59830;SDS011;45711;50.108;13.712;2023-04-25T09:11:44;3.75;;;2.30;;
59830;SDS011;45711;50.108;13.712;2023-04-25T09:19:27;6.15;;;3.67;;
59830;SDS011;45711;50.108;13.712;2023-04-25T09:21:56;7.78;;;4.05;;
59830;SDS011;45711;50.108;13.712;2023-04-25T09:24:37;5.07;;;2.80;;
59830;SDS011;45711;50.108;13.712;2023-04-25T09:27:18;7.63;;;2.78;;
59830;SDS011;45711;50.108;13.712;2023-04-25T09:29:58;7.63;;;3.50;;
59830;SDS011;45711;50.108;13.712;2023-04-25T09:32:35;7.30;;;3.60;;
59830;SDS011;45711;50.108;13.712;2023-04-25T09:35:07;5.45;;;3.20;;
59830;SDS011;45711;50.108;13.712;2023-04-25T09:37:58;3.85;;;2.92;;
59830;SDS011;45711;50.108;13.712;2023-04-25T09:43:29;8.23;;;3.10;;
59830;SDS011;45711;50.108;13.712;2023-04-25T09:49:12;5.63;;;2.60;;
59830;SDS011;45711;50.108;13.712;2023-04-25T09:51:52;4.53;;;2.55;;
59830;SDS011;45711;50.108;13.712;2023-04-25T09:55:11;2.80;;;1.70;;
59830;SDS011;45711;50.108;13.712;2023-04-25T09:57:49;3.30;;;2.20;;
59830;SDS011;45711;50.108;13.712;2023-04-25T16:03:04;6.85;;;2.35;;
59830;SDS011;45711;50.108;13.712;2023-04-25T16:05:30;5.43;;;2.65;;
59830;SDS011;45711;50.108;13.712;2023-04-25T16:07:56;6.88;;;2.00;;
59830;SDS011;45711;50.108;13.712;2023-04-25T16:10:22;4.32;;;2.10;;
59830;SDS011;45711;50.108;13.712;2023-04-25T16:12:47;4.43;;;1.55;;
59830;SDS011;45711;50.108;13.712;2023-04-25T16:15:13;6.80;;;2.33;;
59830;SDS011;45711;50.108;13.712;2023-04-25T16:17:39;5.50;;;1.70;;
59830;SDS011;45711;50.108;13.712;2023-04-25T16:20:07;5.43;;;2.00;;
59830;SDS011;45711;50.108;13.712;2023-04-25T18:20:08;12.15;;;3.05;;
59830;SDS011;45711;50.108;13.712;2023-04-25T19:35:29;11.23;;;3.75;;
59830;SDS011;45711;50.108;13.712;2023-04-25T19:38:14;12.27;;;3.40;;
59830;SDS011;45711;50.108;13.712;2023-04-25T19:40:48;9.52;;;3.90;;
59830;SDS011;45711;50.108;13.712;2023-04-25T19:43:31;14.48;;;4.13;;
59830;SDS011;45711;50.108;13.712;2023-04-25T19:46:25;10.63;;;3.70;;
59830;SDS011;45711;50.108;13.712;2023-04-25T19:48:53;11.77;;;3.80;;
59830;SDS011;45711;50.108;13.712;2023-04-25T19:54:50;9.05;;;3.80;;
59830;SDS011;45711;50.108;13.712;2023-04-25T19:57:28;11.32;;;3.83;;
59830;SDS011;45711;50.108;13.712;2023-04-25T20:00:25;8.48;;;3.90;;
59830;SDS011;45711;50.108;13.712;2023-04-25T20:03:23;9.73;;;4.05;;
59830;SDS011;45711;50.108;13.712;2023-04-25T20:05:59;11.88;;;3.88;;
59830;SDS011;45711;50.108;13.712;2023-04-25T20:08:51;15.77;;;3.95;;
59830;SDS011;45711;50.108;13.712;2023-04-25T20:15:23;17.20;;;3.88;;
59830;SDS011;45711;50.108;13.712;2023-04-25T20:20:26;17.80;;;3.90;;
59830;SDS011;45711;50.108;13.712;2023-04-25T20:22:55;17.35;;;4.35;;
59830;SDS011;45711;50.108;13.712;2023-04-25T20:25:31;13.98;;;3.83;;
59830;SDS011;45711;50.108;13.712;2023-04-25T20:28:07;10.80;;;3.70;;
59830;SDS011;45711;50.108;13.712;2023-04-25T20:31:26;13.80;;;3.53;;
59830;SDS011;45711;50.108;13.712;2023-04-25T20:34:22;15.00;;;4.18;;
59830;SDS011;45711;50.108;13.712;2023-04-25T20:39:31;11.68;;;3.33;;
59830;SDS011;45711;50.108;13.712;2023-04-25T20:42:04;8.77;;;3.45;;
59830;SDS011;45711;50.108;13.712;2023-04-25T20:44:35;12.60;;;3.60;;
59830;SDS011;45711;50.108;13.712;2023-04-25T20:47:16;14.77;;;3.78;;
59830;SDS011;45711;50.108;13.712;2023-04-25T20:49:47;14.73;;;4.05;;
59830;SDS011;45711;50.108;13.712;2023-04-25T20:52:33;14.80;;;4.57;;
59830;SDS011;45711;50.108;13.712;2023-04-25T20:55:04;10.68;;;3.90;;
59830;SDS011;45711;50.108;13.712;2023-04-25T20:57:36;12.48;;;4.30;;
59830;SDS011;45711;50.108;13.712;2023-04-25T21:00:21;10.30;;;3.50;;
59830;SDS011;45711;50.108;13.712;2023-04-25T21:02:58;14.05;;;4.40;;
59830;SDS011;45711;50.108;13.712;2023-04-25T21:05:32;15.15;;;4.35;;
59830;SDS011;45711;50.108;13.712;2023-04-25T21:08:04;11.80;;;3.65;;
59830;SDS011;45711;50.108;13.712;2023-04-25T21:10:38;9.90;;;3.72;;
59830;SDS011;45711;50.108;13.712;2023-04-25T21:13:10;10.10;;;3.92;;
59830;SDS011;45711;50.108;13.712;2023-04-25T21:15:39;11.38;;;4.45;;
59830;SDS011;45711;50.108;13.712;2023-04-25T21:18:12;10.13;;;4.55;;
59830;SDS011;45711;50.108;13.712;2023-04-25T21:21:03;16.35;;;4.03;;
59830;SDS011;45711;50.108;13.712;2023-04-25T21:24:19;13.35;;;5.18;;
59830;SDS011;45711;50.108;13.712;2023-04-25T21:28:37;7.40;;;3.80;;
59830;SDS011;45711;50.108;13.712;2023-04-25T21:33:20;11.65;;;3.80;;
59830;SDS011;45711;50.108;13.712;2023-04-25T21:38:48;15.20;;;5.10;;
59830;SDS011;45711;50.108;13.712;2023-04-25T21:41:42;17.17;;;6.03;;
59830;SDS011;45711;50.108;13.712;2023-04-25T21:44:31;16.58;;;5.10;;
59830;SDS011;45711;50.108;13.712;2023-04-25T21:47:03;14.40;;;4.30;;
59830;SDS011;45711;50.108;13.712;2023-04-25T21:49:40;15.40;;;4.80;;
59830;SDS011;45711;50.108;13.712;2023-04-25T21:52:20;16.20;;;4.28;;
59830;SDS011;45711;50.108;13.712;2023-04-25T21:55:00;16.00;;;3.55;;
59830;SDS011;45711;50.108;13.712;2023-04-25T21:57:35;13.15;;;4.55;;
59830;SDS011;45711;50.108;13.712;2023-04-25T22:00:04;13.25;;;4.85;;
59830;SDS011;45711;50.108;13.712;2023-04-25T22:02:53;13.75;;;3.63;;
59830;SDS011;45711;50.108;13.712;2023-04-25T22:05:27;18.50;;;3.65;;
59830;SDS011;45711;50.108;13.712;2023-04-25T22:07:58;14.43;;;3.40;;
59830;SDS011;45711;50.108;13.712;2023-04-25T22:10:31;13.23;;;3.70;;
59830;SDS011;45711;50.108;13.712;2023-04-25T22:13:14;14.50;;;3.88;;
59830;SDS011;45711;50.108;13.712;2023-04-25T22:15:52;13.15;;;3.92;;
59830;SDS011;45711;50.108;13.712;2023-04-25T22:18:27;11.73;;;3.70;;
59830;SDS011;45711;50.108;13.712;2023-04-25T22:21:00;10.27;;;3.78;;
59830;SDS011;45711;50.108;13.712;2023-04-25T22:23:26;15.18;;;3.65;;
59830;SDS011;45711;50.108;13.712;2023-04-25T22:25:55;12.63;;;3.28;;
59830;SDS011;45711;50.108;13.712;2023-04-25T22:28:54;10.27;;;3.40;;
59830;SDS011;45711;50.108;13.712;2023-04-25T22:31:51;12.60;;;3.00;;
59830;SDS011;45711;50.108;13.712;2023-04-25T22:34:41;15.20;;;3.40;;
59830;SDS011;45711;50.108;13.712;2023-04-25T22:37:06;7.25;;;2.85;;
59830;SDS011;45711;50.108;13.712;2023-04-25T22:39:38;6.63;;;2.50;;
59830;SDS011;45711;50.108;13.712;2023-04-25T22:42:09;10.63;;;3.67;;
59830;SDS011;45711;50.108;13.712;2023-04-25T22:44:36;9.98;;;3.05;;
59830;SDS011;45711;50.108;13.712;2023-04-25T22:47:10;9.82;;;3.38;;
59830;SDS011;45711;50.108;13.712;2023-04-25T22:49:41;10.50;;;3.05;;
59830;SDS011;45711;50.108;13.712;2023-04-25T22:52:36;7.15;;;2.50;;
59830;SDS011;45711;50.108;13.712;2023-04-25T22:55:08;7.53;;;2.72;;
59830;SDS011;45711;50.108;13.712;2023-04-25T22:57:36;7.03;;;2.90;;
59830;SDS011;45711;50.108;13.712;2023-04-25T23:00:06;11.82;;;3.15;;
59830;SDS011;45711;50.108;13.712;2023-04-25T23:02:43;11.98;;;3.35;;
59830;SDS011;45711;50.108;13.712;2023-04-25T23:05:11;10.55;;;3.13;;
59830;SDS011;45711;50.108;13.712;2023-04-25T23:07:39;6.28;;;3.05;;
59830;SDS011;45711;50.108;13.712;2023-04-25T23:10:06;10.00;;;3.45;;
59830;SDS011;45711;50.108;13.712;2023-04-25T23:12:33;12.25;;;3.58;;
59830;SDS011;45711;50.108;13.712;2023-04-25T23:14:59;12.63;;;3.30;;
59830;SDS011;45711;50.108;13.712;2023-04-25T23:17:33;8.15;;;3.38;;
59830;SDS011;45711;50.108;13.712;2023-04-25T23:20:06;10.90;;;3.72;;
59830;SDS011;45711;50.108;13.712;2023-04-25T23:25:02;7.72;;;2.85;;
59830;SDS011;45711;50.108;13.712;2023-04-25T23:27:33;6.22;;;2.95;;
59830;SDS011;45711;50.108;13.712;2023-04-25T23:30:03;7.00;;;3.13;;
59830;SDS011;45711;50.108;13.712;2023-04-25T23:32:35;8.57;;;3.42;;
59830;SDS011;45711;50.108;13.712;2023-04-25T23:35:07;12.88;;;3.95;;
59830;SDS011;45711;50.108;13.712;2023-04-25T23:37:36;13.05;;;3.92;;
59830;SDS011;45711;50.108;13.712;2023-04-25T23:40:05;9.93;;;3.58;;
59830;SDS011;45711;50.108;13.712;2023-04-25T23:42:32;9.25;;;3.83;;
59830;SDS011;45711;50.108;13.712;2023-04-25T23:44:58;12.60;;;4.22;;
59830;SDS011;45711;50.108;13.712;2023-04-25T23:47:26;10.63;;;4.00;;
59830;SDS011;45711;50.108;13.712;2023-04-25T23:49:52;8.13;;;3.75;;
59830;SDS011;45711;50.108;13.712;2023-04-25T23:52:19;10.82;;;4.10;;
59830;SDS011;45711;50.108;13.712;2023-04-25T23:54:46;12.18;;;4.45;;
59830;SDS011;45711;50.108;13.712;2023-04-25T23:57:15;11.25;;;4.13;;
59830;SDS011;45711;50.108;13.712;2023-04-25T23:59:41;16.83;;;5.07;;
